Time;durP1;ratioP1;P1;durP2;ratioP2;P2;SDS_P1;SDS_P2;PMS_P1;PMS_P2;Temp;Humidity;BMP_temperature;BMP_pressure;BME280_temperature;BME280_humidity;BME280_pressure;Samples;Min_cycle;Max_cycle;Signal;HPM_P1;HPM_P2
2022/01/05 00:01:47;;;;;;;93.78;57.97;;;;;;;;;;5015353;28;20038;-66
2022/01/05 00:04:16;;;;;;;65.93;43.47;;;;;;;;;;5015443;28;20499;-65
2022/01/05 00:06:42;;;;;;;72.35;48.30;;;;;;;;;;5015502;28;20026;-68
2022/01/05 00:09:08;;;;;;;71.30;47.45;;;;;;;;;;5014868;28;20033;-69
2022/01/05 00:11:36;;;;;;;69.57;47.35;;;;;;;;;;5015658;28;20488;-66
2022/01/05 00:14:02;;;;;;;70.25;45.90;;;;;;;;;;5015423;28;20079;-69
2022/01/05 00:16:33;;;;;;;66.90;44.08;;;;;;;;;;5015184;28;20034;-68
2022/01/05 00:18:59;;;;;;;69.13;45.63;;;;;;;;;;5014929;28;20181;-69
2022/01/05 00:21:25;;;;;;;65.40;42.30;;;;;;;;;;5015227;28;20018;-68
2022/01/05 00:23:52;;;;;;;70.38;43.85;;;;;;;;;;5015105;28;20025;-71
2022/01/05 00:26:18;;;;;;;73.80;43.45;;;;;;;;;;5014907;28;20489;-69
2022/01/05 00:28:44;;;;;;;71.13;45.22;;;;;;;;;;5014109;28;20034;-68
2022/01/05 00:31:10;;;;;;;72.88;45.83;;;;;;;;;;5015013;28;20221;-70
2022/01/05 00:33:36;;;;;;;67.93;43.83;;;;;;;;;;5014834;28;20032;-68
2022/01/05 00:36:03;;;;;;;81.88;51.17;;;;;;;;;;5014829;28;20022;-68
2022/01/05 00:38:29;;;;;;;86.82;54.00;;;;;;;;;;5014528;28;20042;-70
2022/01/05 00:40:55;;;;;;;80.22;48.25;;;;;;;;;;5014860;28;20072;-73
2022/01/05 00:43:22;;;;;;;88.57;55.53;;;;;;;;;;5014823;28;20110;-74
2022/01/05 00:45:48;;;;;;;79.70;52.25;;;;;;;;;;5014710;28;20029;-73
2022/01/05 00:48:14;;;;;;;84.32;53.63;;;;;;;;;;5014623;28;20026;-69
2022/01/05 00:50:39;;;;;;;86.38;53.92;;;205.50;2252.80;;;;;;5014590;28;20029;-71
2022/01/05 00:53:06;;;;;;;81.57;52.45;;;;;;;;;;5014622;28;20026;-74
2022/01/05 00:55:32;;;;;;;87.20;53.90;;;;;;;;;;5014882;28;20494;-72
2022/01/05 00:57:58;;;;;;;93.15;56.50;;;;;;;;;;5014163;28;20554;-71
2022/01/05 01:00:24;;;;;;;115.72;75.68;;;;;;;;;;5014467;28;20034;-69
2022/01/05 01:02:50;;;;;;;108.60;68.75;;;;;;;;;;5011262;28;20052;-68
2022/01/05 01:05:16;;;;;;;100.22;62.65;;;;;;;;;;4994509;28;20085;-66
2022/01/05 01:07:44;;;;;;;92.25;61.05;;;;;;;;;;4997993;28;20022;-64
2022/01/05 01:10:10;;;;;;;94.00;59.75;;;;;;;;;;5014518;28;20030;-69
2022/01/05 01:12:36;;;;;;;90.47;57.00;;;;;;;;;;5014249;28;20030;-73
2022/01/05 01:15:07;;;;;;;80.93;51.45;;;;;;;;;;5014427;28;20120;-73
2022/01/05 01:17:33;;;;;;;73.28;48.53;;;;;;;;;;5008786;28;20030;-65
2022/01/05 01:19:59;;;;;;;76.55;48.17;;;;;;;;;;4994618;28;20092;-69
2022/01/05 01:22:28;;;;;;;86.40;49.17;;;;;;;;;;5007583;28;20051;-67
2022/01/05 01:24:54;;;;;;;72.43;46.83;;;;;;;;;;5014094;28;20037;-67
2022/01/05 01:27:20;;;;;;;75.65;49.28;;;;;;;;;;4996410;28;20046;-69
2022/01/05 01:29:46;;;;;;;71.05;46.05;;;;;;;;;;4994775;28;20391;-69
2022/01/05 01:32:12;;;;;;;55.53;37.28;;;;;;;;;;4983978;28;20038;-63
2022/01/05 01:34:39;;;;;;;57.88;37.58;;;;;;;;;;4974804;28;20501;-62
2022/01/05 01:37:05;;;;;;;98.25;42.08;;;;;;;;;;4974411;28;20041;-65
2022/01/05 01:39:32;;;;;;;70.47;39.40;;;;;;;;;;4973651;28;20069;-65
2022/01/05 01:41:58;;;;;;;59.15;38.95;;;;;;;;;;4994167;28;20031;-68
2022/01/05 01:44:24;;;;;;;57.63;37.63;;;;;;;;;;4994117;28;20038;-68
2022/01/05 01:46:50;;;;;;;57.03;38.17;;;;;;;;;;4994035;28;20023;-60
2022/01/05 01:49:16;;;;;;;59.00;38.42;;;;;;;;;;4993801;28;20035;-66
2022/01/05 01:51:42;;;;;;;64.63;42.22;;;;;;;;;;4994074;28;20022;-68
2022/01/05 01:54:10;;;;;;;69.32;42.78;;;;;;;;;;4993835;28;20596;-68
2022/01/05 01:56:36;;;;;;;72.97;46.75;;;;;;;;;;4993873;28;20384;-65
2022/01/05 01:59:02;;;;;;;72.85;45.65;;;;;;;;;;4993726;28;20076;-67
2022/01/05 02:01:29;;;;;;;74.53;45.30;;;;;;;;;;4993838;28;20022;-69
2022/01/05 02:03:55;;;;;;;53.67;34.30;;;;;;;;;;4993686;28;20034;-69
2022/01/05 02:06:21;;;;;;;52.20;34.55;;;;;;;;;;4993834;28;20026;-67
2022/01/05 02:08:47;;;;;;;45.83;32.85;;;;;;;;;;4993454;28;20034;-66
2022/01/05 02:11:14;;;;;;;58.20;35.75;;;205.40;2252.80;;;;;;4993630;28;20058;-66
2022/01/05 02:13:40;;;;;;;54.70;35.95;;;205.30;2252.80;;;;;;4993725;28;20080;-69
2022/01/05 02:16:06;;;;;;;53.72;33.10;;;205.20;2252.80;;;;;;4993648;28;20022;-68
2022/01/05 02:21:09;;;;;;;30.17;19.80;;;;;;;;;;4993776;28;20026;-69
2022/01/05 02:23:36;;;;;;;31.48;20.98;;;;;;;;;;4993391;28;20093;-67
2022/01/05 02:26:03;;;;;;;26.00;17.77;;;;;;;;;;4993171;28;20034;-68
2022/01/05 02:28:29;;;;;;;30.13;19.20;;;;;;;;;;4993558;28;20026;-66
2022/01/05 02:30:57;;;;;;;19.20;12.43;;;;;;;;;;4993382;28;20033;-66
2022/01/05 02:33:24;;;;;;;14.52;9.40;;;;;;;;;;4993475;28;20053;-67
2022/01/05 02:35:51;;;;;;;13.05;7.72;;;;;;;;;;4993629;28;20101;-67
2022/01/05 02:38:17;;;;;;;11.90;8.10;;;;;;;;;;4993301;28;20038;-65
2022/01/05 02:40:44;;;;;;;9.98;6.93;;;;;;;;;;4993424;28;20062;-66
2022/01/05 02:43:09;;;;;;;12.00;7.05;;;307.30;2304.00;;;;;;4992599;28;20041;-68
2022/01/05 02:45:35;;;;;;;16.48;8.85;;;307.30;2304.00;;;;;;4994089;28;20022;-68
2022/01/05 02:48:01;;;;;;;9.82;6.45;;;;;;;;;;4987189;28;20027;-68
2022/01/05 02:50:27;;;;;;;10.25;6.10;;;;;;;;;;4975387;28;20150;-66
2022/01/05 02:52:53;;;;;;;10.07;6.28;;;;;;;;;;4974471;28;20049;-65
2022/01/05 02:55:19;;;;;;;9.27;6.47;;;;;;;;;;4956370;28;20047;-66
2022/01/05 02:57:45;;;;;;;8.35;5.47;;;307.90;2278.40;;;;;;4973881;28;20042;-65
2022/01/05 03:00:14;;;;;;;12.10;6.93;;;308.00;2278.40;;;;;;4973781;28;20107;-67
2022/01/05 03:02:40;;;;;;;10.32;6.60;;;308.10;2227.20;;;;;;4973657;28;20114;-68
2022/01/05 03:05:07;;;;;;;8.52;6.35;;;308.10;2227.20;;;;;;4973484;28;20462;-66
2022/01/05 03:07:38;;;;;;;19.00;12.93;;;308.10;2227.20;;;;;;4974813;28;20127;-65
2022/01/05 03:10:05;;;;;;;59.78;39.75;;;308.10;2227.20;;;;;;4982101;28;20026;-63
2022/01/05 03:12:30;;;;;;;21.88;13.95;;;307.90;2150.40;;;;;;4973639;28;20094;-67
2022/01/05 03:14:56;;;;;;;11.13;6.32;;;308.00;2227.20;;;;;;4973610;28;20026;-66
2022/01/05 03:17:22;;;;;;;9.80;6.28;;;;;;;;;;4973453;28;20066;-69
2022/01/05 03:19:48;;;;;;;11.30;6.85;;;;;;;;;;4973711;28;20050;-67
2022/01/05 03:22:14;;;;;;;14.85;8.30;;;;;;;;;;4973845;28;20066;-68
2022/01/05 03:24:40;;;;;;;13.93;8.38;;;;;;;;;;4973567;28;20031;-68
2022/01/05 03:27:07;;;;;;;32.28;19.27;;;;;;;;;;4973277;28;20039;-67
2022/01/05 03:29:33;;;;;;;63.75;38.90;;;;;;;;;;4973831;28;20030;-68
2022/01/05 03:31:58;;;;;;;81.40;50.63;;;308.00;2099.20;;;;;;4973498;28;20085;-67
2022/01/05 03:34:24;;;;;;;82.93;51.28;;;307.80;2099.20;;;;;;4973699;28;20027;-67
2022/01/05 03:36:51;;;;;;;94.00;55.30;;;;;;;;;;4973649;28;20029;-68
2022/01/05 03:39:16;;;;;;;97.18;58.95;;;307.50;2099.20;;;;;;4988115;28;20103;-68
2022/01/05 03:41:43;;;;;;;83.90;54.65;;;;;;;;;;4992947;28;20030;-67
2022/01/05 03:44:09;;;;;;;91.75;59.17;;;282.20;2150.40;;;;;;4992814;28;20029;-67
2022/01/05 03:46:35;;;;;;;91.53;59.90;;;;;;;;;;4992891;28;20026;-68
2022/01/05 03:49:01;;;;;;;94.32;60.72;;;;;;;;;;4992580;28;20026;-68
2022/01/05 03:51:27;;;;;;;96.18;60.92;;;;;;;;;;4992733;28;20027;-67
2022/01/05 03:53:53;;;;;;;91.13;58.28;;;256.90;2227.20;;;;;;4992774;28;20029;-67
2022/01/05 03:56:20;;;;;;;102.43;64.70;;;256.90;2227.20;;;;;;4992713;28;20022;-68
2022/01/05 03:58:45;;;;;;;127.40;77.82;;;256.90;2227.20;;;;;;4993157;28;20038;-68
2022/01/05 04:01:12;;;;;;;113.82;71.82;;;;;;;;;;4993075;28;20479;-68
2022/01/05 04:03:38;;;;;;;107.13;64.43;;;256.70;2252.80;;;;;;4994264;28;20098;-67
2022/01/05 04:06:05;;;;;;;104.38;65.95;;;256.60;2252.80;;;;;;4996119;28;20022;-68
2022/01/05 04:08:31;;;;;;;95.93;62.42;;;256.40;2252.80;;;;;;4996061;28;20060;-67
2022/01/05 04:10:57;;;;;;;86.95;56.75;;;;;;;;;;4995984;28;20477;-67
2022/01/05 04:13:23;;;;;;;83.55;56.25;;;;;;;;;;4996045;28;20058;-68
2022/01/05 04:15:49;;;;;;;74.13;52.55;;;;;;;;;;4995953;28;20473;-66
2022/01/05 04:18:15;;;;;;;76.70;52.05;;;;;;;;;;4995707;28;20405;-67
2022/01/05 04:20:41;;;;;;;70.10;46.30;;;;;;;;;;4995948;28;20109;-67
2022/01/05 04:23:07;;;;;;;59.90;37.85;;;;;;;;;;4995864;28;20105;-67
2022/01/05 04:25:33;;;;;;;56.35;35.03;;;;;;;;;;4995809;28;20029;-68
2022/01/05 04:28:00;;;;;;;63.25;40.20;;;;;;;;;;4995329;28;20088;-68
2022/01/05 04:30:26;;;;;;;72.28;41.20;;;;;;;;;;4995685;28;20496;-67
2022/01/05 04:32:52;;;;;;;66.70;40.50;;;;;;;;;;4995804;28;20023;-67
2022/01/05 04:35:18;;;;;;;70.95;40.35;;;;;;;;;;4995607;28;20026;-67
2022/01/05 04:37:44;;;;;;;66.55;40.28;;;;;;;;;;4995482;28;20085;-67
2022/01/05 04:40:11;;;;;;;51.50;33.67;;;;;;;;;;4995567;28;20030;-67
2022/01/05 04:42:38;;;;;;;84.70;50.28;;;;;;;;;;4987782;28;20027;-66
2022/01/05 04:45:04;;;;;;;106.75;60.35;;;;;;;;;;4975942;28;20037;-67
2022/01/05 04:47:30;;;;;;;71.18;42.90;;;;;;;;;;4975985;28;20470;-67
2022/01/05 04:49:56;;;;;;;85.63;53.03;;;;;;;;;;4975711;28;20441;-68
2022/01/05 04:52:22;;;;;;;183.38;104.47;;;;;;;;;;4975941;28;20041;-67
2022/01/05 04:54:48;;;;;;;184.25;99.85;;;;;;;;;;4975784;28;20027;-66
2022/01/05 04:57:15;;;;;;;165.07;87.82;;;;;;;;;;4975450;28;20171;-66
2022/01/05 04:59:41;;;;;;;177.52;97.38;;;;;;;;;;4976050;28;20081;-63
2022/01/05 05:02:07;;;;;;;210.57;105.82;;;;;;;;;;4975641;28;20030;-65
2022/01/05 05:04:33;;;;;;;157.15;86.95;;;;;;;;;;4975442;28;20023;-67
2022/01/05 05:06:59;;;;;;;106.78;62.97;;;;;;;;;;4975426;28;20030;-66
2022/01/05 05:09:26;;;;;;;104.72;58.95;;;;;;;;;;4991145;28;20023;-70
2022/01/05 05:11:52;;;;;;;105.78;58.35;;;;;;;;;;4994828;28;20503;-66
2022/01/05 05:14:18;;;;;;;91.32;54.55;;;;;;;;;;4994541;28;20027;-69
2022/01/05 05:16:44;;;;;;;104.32;63.70;;;;;;;;;;4995180;28;20030;-68
2022/01/05 05:19:10;;;;;;;90.07;54.85;;;;;;;;;;4994687;28;20060;-69
2022/01/05 05:21:36;;;;;;;88.57;56.13;;;;;;;;;;4994765;28;20069;-68
2022/01/05 05:24:02;;;;;;;91.28;59.60;;;;;;;;;;4994927;28;20149;-68
2022/01/05 05:26:28;;;;;;;94.00;60.38;;;;;;;;;;4994368;28;20046;-69
2022/01/05 05:28:55;;;;;;;91.55;57.63;;;;;;;;;;4994373;28;20030;-67
2022/01/05 05:31:21;;;;;;;182.35;111.43;;;;;;;;;;4994504;28;20077;-68
2022/01/05 05:33:47;;;;;;;113.22;71.78;;;;;;;;;;4994311;28;20096;-67
2022/01/05 05:36:13;;;;;;;106.95;71.03;;;;;;;;;;4994530;28;20058;-69
2022/01/05 05:38:39;;;;;;;139.18;92.85;;;;;;;;;;4994153;28;20084;-67
2022/01/05 05:41:05;;;;;;;132.68;86.63;;;;;;;;;;4994074;28;20061;-68
2022/01/05 05:43:31;;;;;;;138.50;87.22;;;;;;;;;;4994336;28;20041;-67
2022/01/05 05:45:57;;;;;;;124.60;83.85;;;;;;;;;;4994192;28;20022;-68
2022/01/05 05:48:23;;;;;;;107.05;74.18;;;;;;;;;;4994133;28;20030;-68
2022/01/05 05:50:49;;;;;;;103.68;70.78;;;;;;;;;;4994023;28;20054;-66
2022/01/05 05:53:15;;;;;;;104.18;73.13;;;;;;;;;;4994028;28;20034;-66
2022/01/05 05:55:42;;;;;;;87.63;59.35;;;;;;;;;;4994081;28;20101;-67
2022/01/05 05:58:08;;;;;;;97.35;58.92;;;;;;;;;;4993879;28;20097;-67
2022/01/05 06:00:34;;;;;;;108.95;66.25;;;;;;;;;;4992949;28;20054;-69
2022/01/05 06:03:01;;;;;;;111.05;67.60;;;;;;;;;;4993942;28;20030;-69
2022/01/05 06:05:27;;;;;;;92.65;54.42;;;;;;;;;;4993771;28;20062;-70
2022/01/05 06:07:53;;;;;;;90.95;60.50;;;;;;;;;;4993838;28;20034;-70
2022/01/05 06:10:19;;;;;;;93.78;60.67;;;;;;;;;;4993797;28;20089;-70
2022/01/05 06:12:45;;;;;;;96.50;58.05;;;;;;;;;;4993844;28;20109;-69
2022/01/05 06:15:11;;;;;;;82.03;49.10;;;;;;;;;;4993780;28;20038;-67
2022/01/05 06:17:38;;;;;;;76.72;46.85;;;;;;;;;;4993659;28;20034;-68
2022/01/05 06:20:05;;;;;;;90.43;46.42;;;;;;;;;;4993492;28;20037;-66
2022/01/05 06:22:31;;;;;;;90.03;54.30;;;;;;;;;;4993607;28;20037;-66
2022/01/05 06:24:58;;;;;;;60.13;37.58;;;;;;;;;;4993594;28;20069;-67
2022/01/05 06:27:24;;;;;;;70.63;44.63;;;;;;;;;;4992606;28;20452;-68
2022/01/05 06:29:50;;;;;;;101.07;65.13;;;;;;;;;;4993615;28;20030;-69
2022/01/05 06:32:17;;;;;;;116.45;72.40;;;;;;;;;;4993586;28;20105;-67
2022/01/05 06:34:43;;;;;;;109.32;66.18;;;;;;;;;;4993705;28;20487;-69
2022/01/05 06:37:09;;;;;;;107.13;68.25;;;;;;;;;;4993324;28;20049;-65
2022/01/05 06:39:35;;;;;;;116.18;70.85;;;;;;;;;;4993585;28;20041;-70
2022/01/05 06:42:01;;;;;;;116.15;75.78;;;;;;;;;;4993264;28;20051;-68
2022/01/05 06:44:27;;;;;;;129.40;75.38;;;;;;;;;;4993199;28;20432;-67
2022/01/05 06:46:53;;;;;;;140.32;87.93;;;;;;;;;;4993253;28;20101;-68
2022/01/05 06:49:21;;;;;;;125.68;86.20;;;;;;;;;;4993265;28;20018;-69
2022/01/05 06:51:47;;;;;;;117.25;80.00;;;;;;;;;;4993233;28;20030;-67
2022/01/05 06:54:13;;;;;;;122.53;84.53;;;;;;;;;;4993259;28;20022;-68
2022/01/05 06:56:39;;;;;;;139.65;95.63;;;;;;;;;;4993064;28;20033;-67
2022/01/05 06:59:06;;;;;;;110.55;70.90;;;;;;;;;;4992990;28;20042;-67
2022/01/05 07:01:32;;;;;;;99.45;60.58;;;;;;;;;;4993304;28;20022;-66
2022/01/05 07:03:59;;;;;;;89.32;53.80;;;;;;;;;;4993241;28;20030;-69
2022/01/05 07:06:25;;;;;;;64.57;42.00;;;;;;;;;;4993030;28;20197;-69
2022/01/05 07:08:51;;;;;;;66.35;41.20;;;;;;;;;;4992906;28;20050;-68
2022/01/05 07:11:17;;;;;;;65.88;40.50;;;;;;;;;;4993148;28;20400;-70
2022/01/05 07:13:44;;;;;;;67.85;43.00;;;;;;;;;;4993237;28;20369;-68
2022/01/05 07:16:09;;;;;;;100.38;58.15;;;230.90;2252.80;;;;;;4993204;28;20023;-69
2022/01/05 07:18:35;;;;;;;111.95;65.95;;;231.20;2252.80;;;;;;4993037;28;20041;-69
2022/01/05 07:21:01;;;;;;;142.27;102.13;;;;;;;;;;4992810;28;20134;-70
2022/01/05 07:23:27;;;;;;;99.82;64.05;;;;;;;;;;4992900;28;20038;-68
2022/01/05 07:25:53;;;;;;;90.25;56.13;;;;;;;;;;4992632;28;20068;-70
2022/01/05 07:28:19;;;;;;;93.28;64.03;;;;;;;;;;4992699;28;20039;-69
2022/01/05 07:30:45;;;;;;;127.38;80.45;;;;;;;;;;4992772;28;20496;-69
2022/01/05 07:33:12;;;;;;;107.20;68.15;;;231.10;2252.80;;;;;;4992702;28;20544;-68
2022/01/05 07:35:38;;;;;;;82.95;53.22;;;230.90;2252.80;;;;;;4992467;28;20023;-69
2022/01/05 07:38:04;;;;;;;88.43;53.78;;;230.90;2252.80;;;;;;4994764;28;20400;-65
2022/01/05 07:40:29;;;;;;;83.95;53.38;;;231.10;2252.80;;;;;;4996285;28;20561;-69
2022/01/05 07:42:55;;;;;;;123.00;80.88;;;231.00;2252.80;;;;;;4996229;28;20030;-69
2022/01/05 07:45:21;;;;;;;106.78;72.50;;;;;;;;;;4996203;28;20027;-68
2022/01/05 07:47:47;;;;;;;124.50;83.78;;;;;;;;;;4996337;28;20045;-69
2022/01/05 07:50:16;;;;;;;162.60;120.97;;;230.90;2252.80;;;;;;4996297;28;20022;-68
2022/01/05 07:52:44;;;;;;;113.72;75.65;;;;;;;;;;4996393;28;20030;-68
2022/01/05 07:55:11;;;;;;;114.53;74.88;;;231.10;2252.80;;;;;;4995904;28;20022;-68
2022/01/05 07:57:37;;;;;;;95.22;63.17;;;231.00;2252.80;;;;;;4995879;28;20097;-66
2022/01/05 08:00:04;;;;;;;94.13;62.60;;;;;;;;;;4996350;28;20054;-69
2022/01/05 08:02:31;;;;;;;108.30;67.10;;;;;;;;;;4996155;28;20022;-69
2022/01/05 08:04:57;;;;;;;107.47;68.10;;;;;;;;;;4995714;28;20022;-67
2022/01/05 08:07:23;;;;;;;80.22;58.17;;;;;;;;;;4995741;28;20030;-68
2022/01/05 08:09:49;;;;;;;103.05;68.35;;;;;;;;;;4995962;28;20197;-69
2022/01/05 08:12:15;;;;;;;90.93;66.13;;;;;;;;;;4995798;28;20026;-69
2022/01/05 08:14:41;;;;;;;96.60;65.15;;;;;;;;;;4995568;28;20019;-68
2022/01/05 08:17:08;;;;;;;113.85;81.30;;;;;;;;;;4995599;28;20026;-69
2022/01/05 08:19:34;;;;;;;109.55;79.15;;;;;;;;;;4995761;28;20030;-67
2022/01/05 08:22:00;;;;;;;127.70;89.57;;;;;;;;;;4994478;28;20416;-68
2022/01/05 08:24:26;;;;;;;136.40;95.15;;;;;;;;;;4995484;28;20038;-68
2022/01/05 08:26:53;;;;;;;124.40;91.28;;;;;;;;;;4995156;28;20398;-69
2022/01/05 08:29:19;;;;;;;139.63;93.55;;;;;;;;;;4995357;28;20030;-68
2022/01/05 08:31:45;;;;;;;154.27;110.80;;;;;;;;;;4995322;28;20045;-68
2022/01/05 08:34:11;;;;;;;186.25;127.85;;;;;;;;;;4995363;28;20026;-68
2022/01/05 08:36:37;;;;;;;130.52;90.20;;;;;;;;;;4995078;28;20054;-71
2022/01/05 08:39:04;;;;;;;125.18;84.55;;;;;;;;;;4994787;28;20065;-69
2022/01/05 08:41:30;;;;;;;131.98;85.68;;;;;;;;;;4995064;28;20445;-68
2022/01/05 08:43:56;;;;;;;139.75;100.70;;;;;;;;;;4995167;28;20389;-69
2022/01/05 08:46:22;;;;;;;134.27;95.32;;;;;;;;;;4995176;28;20101;-68
2022/01/05 08:48:48;;;;;;;139.00;104.28;;;;;;;;;;4994472;28;20033;-69
2022/01/05 08:51:14;;;;;;;156.43;112.68;;;;;;;;;;4995098;28;20404;-70
2022/01/05 08:53:40;;;;;;;173.02;111.05;;;;;;;;;;4995202;28;20048;-70
2022/01/05 08:56:06;;;;;;;145.32;108.07;;;;;;;;;;4995107;28;20026;-66
2022/01/05 08:58:33;;;;;;;146.30;96.90;;;;;;;;;;4994514;28;20061;-69
2022/01/05 09:00:59;;;;;;;108.70;73.55;;;;;;;;;;4994717;28;20034;-70
2022/01/05 09:03:25;;;;;;;118.43;83.60;;;;;;;;;;4993192;28;20484;-69
2022/01/05 09:05:51;;;;;;;115.13;73.93;;;;;;;;;;4994785;28;20090;-70
2022/01/05 09:08:17;;;;;;;147.40;98.95;;;;;;;;;;4994267;28;20023;-70
2022/01/05 09:10:43;;;;;;;187.98;129.20;;;;;;;;;;4994673;28;20080;-69
2022/01/05 09:13:09;;;;;;;147.80;104.63;;;;;;;;;;4994315;28;20084;-68
2022/01/05 09:15:36;;;;;;;134.18;91.25;;;;;;;;;;4994866;28;20022;-68
2022/01/05 09:18:02;;;;;;;119.95;83.13;;;;;;;;;;4994386;28;20109;-69
2022/01/05 09:20:29;;;;;;;103.97;74.00;;;;;;;;;;4994566;28;20484;-69
2022/01/05 09:22:56;;;;;;;110.15;75.82;;;;;;;;;;4994256;28;20440;-67
2022/01/05 09:25:23;;;;;;;101.50;67.88;;;;;;;;;;4994665;28;20384;-65
2022/01/05 09:27:50;;;;;;;118.20;82.05;;;;;;;;;;4993867;28;20051;-66
2022/01/05 09:30:16;;;;;;;104.05;71.03;;;;;;;;;;4994365;28;20022;-68
2022/01/05 09:32:42;;;;;;;116.05;74.68;;;;;;;;;;4993127;28;20113;-69
2022/01/05 09:35:11;;;;;;;113.18;80.90;;;;;;;;;;4994038;28;20026;-67
2022/01/05 09:37:50;;;;;;;91.47;68.22;;;435.20;1715.20;;;;;;4993598;28;20496;-68
2022/01/05 09:43:01;;;;;;;89.57;68.10;;;;;;;;;;4993921;28;20049;-67
2022/01/05 09:45:29;;;;;;;111.63;82.75;;;512.30;1356.80;;;;;;4994037;28;20408;-69
2022/01/05 09:48:10;;;;;;;122.22;92.35;;;;;;;;;;4993627;28;20465;-69
2022/01/05 09:51:01;;;;;;;100.97;75.53;;;461.40;1484.80;;;;;;4993676;28;20034;-69
2022/01/05 09:53:27;;;;;;;113.30;80.03;;;;;;;;;;4993790;28;20061;-68
2022/01/05 09:55:53;;;;;;;148.48;114.05;;;436.10;1536.00;;;;;;4979165;28;20035;-68
2022/01/05 09:58:21;;;;;;;149.35;114.28;;;436.00;1561.60;;;;;;4973931;28;20125;-70
2022/01/05 10:00:48;;;;;;;152.13;118.85;;;460.90;1561.60;;;;;;4973352;28;20393;-70
2022/01/05 10:03:14;;;;;;;151.88;116.93;;;435.40;1612.80;;;;;;4974081;28;20038;-68
2022/01/05 10:05:41;;;;;;;143.85;110.15;;;435.50;1612.80;;;;;;4974013;28;20496;-71
2022/01/05 10:08:08;;;;;;;167.20;124.97;;;;;;;;;;4977977;28;20026;-74
2022/01/05 10:10:34;;;;;;;162.82;120.40;;;;;;;;;;4993665;28;20480;-74
2022/01/05 10:13:00;;;;;;;179.75;136.77;;;435.20;1689.60;;;;;;4993605;28;20026;-70
2022/01/05 10:15:27;;;;;;;190.10;147.70;;;435.20;1689.60;;;;;;4993435;28;20022;-73
2022/01/05 10:18:16;;;;;;;171.50;139.00;;;410.40;1715.20;;;;;;4991902;28;20052;-74
2022/01/05 10:21:14;;;;;;;157.73;123.60;;;410.50;1715.20;;;;;;4993393;28;20172;-71
2022/01/05 10:23:45;;;;;;;174.82;132.48;;;410.50;1715.20;;;;;;4929338;29;20072;-74
2022/01/05 10:26:23;;;;;;;171.35;128.35;;;410.40;1740.80;;;;;;4918067;29;20478;-73
2022/01/05 10:28:50;;;;;;;178.07;136.88;;;;;;;;;;4932683;29;20055;-76
2022/01/05 10:31:19;;;;;;;190.25;155.23;;;460.80;1664.00;;;;;;4937993;29;20106;-72
2022/01/05 10:33:47;;;;;;;163.75;124.43;;;;;;;;;;4952490;29;20058;-74
2022/01/05 10:36:13;;;;;;;172.88;128.73;;;461.40;1612.80;;;;;;4952461;29;20486;-76
2022/01/05 10:38:50;;;;;;;186.82;131.27;;;;;;;;;;4951986;29;20035;-74
2022/01/05 10:41:17;;;;;;;170.82;121.72;;;;;;;;;;4952223;29;20066;-74
2022/01/05 10:44:01;;;;;;;144.02;112.50;;;;;;;;;;4952400;29;20078;-75
2022/01/05 10:46:38;;;;;;;186.35;122.22;;;;;;;;;;4952395;29;20572;-74
2022/01/05 10:49:04;;;;;;;192.75;128.13;;;435.70;1689.60;;;;;;4952112;29;20023;-74
2022/01/05 10:51:32;;;;;;;199.30;144.60;;;435.60;1715.20;;;;;;4952333;29;20031;-74
2022/01/05 10:54:30;;;;;;;231.15;155.10;;;;;;;;;;4952124;29;20511;-74
2022/01/05 10:57:13;;;;;;;245.80;160.20;;;;;;;;;;4914002;29;20044;-74
2022/01/05 10:59:46;;;;;;;316.10;204.43;;;409.90;1868.80;;;;;;4939287;29;20058;-74
2022/01/05 11:02:30;;;;;;;316.40;206.30;;;;;;;;;;4952518;29;20031;-74
2022/01/05 11:05:12;;;;;;;278.27;185.63;;;384.90;1920.00;;;;;;4952427;29;20059;-73
2022/01/05 11:07:41;;;;;;;219.13;151.23;;;384.90;1945.60;;;;;;4952158;29;20505;-74
2022/01/05 11:10:13;;;;;;;200.48;141.93;;;384.90;1945.60;;;;;;4952002;28;20027;-74
2022/01/05 11:12:41;;;;;;;;;;;384.90;1971.20;;;;;;4954475;28;20425;-73
2022/01/05 11:15:21;;;;;;;149.70;111.15;;;384.90;1945.60;;;;;;4956075;29;19929;-73
2022/01/05 11:18:08;;;;;;;200.75;129.82;;;384.90;1971.20;;;;;;4957770;29;20055;-74
2022/01/05 11:20:52;;;;;;;208.50;140.77;;;409.70;2022.40;;;;;;4955884;29;20043;-75
2022/01/05 11:23:26;;;;;;;210.77;143.57;;;;;;;;;;4956060;29;20054;-72
2022/01/05 11:25:54;;;;;;;158.63;115.38;;;;;;;;;;4955874;28;20045;-74
2022/01/05 11:28:21;;;;;;;140.40;105.15;;;;;;;;;;4955859;29;20031;-71
2022/01/05 11:30:48;;;;;;;152.18;110.75;;;;;;;;;;4955988;29;20513;-73
2022/01/05 11:33:14;;;;;;;140.32;102.45;;;;;;;;;;5004541;28;20107;-74
2022/01/05 11:35:40;;;;;;;129.88;97.13;;;;;;;;;;5016502;28;20045;-74
2022/01/05 11:38:08;;;;;;;115.35;87.22;;;;;;;;;;5016314;28;20373;-74
2022/01/05 11:40:35;;;;;;;123.68;94.60;;;;;;;;;;5016577;28;20030;-73
2022/01/05 11:43:09;;;;;;;145.40;102.55;;;;;;;;;;5016299;28;20388;-74
2022/01/05 11:45:36;;;;;;;156.15;107.30;;;;;;;;;;5012357;28;20120;-74
2022/01/05 11:48:22;;;;;;;182.18;118.20;;;;;;;;;;4997458;28;20031;-70
2022/01/05 11:50:49;;;;;;;168.10;117.78;;;;;;;;;;4996600;28;20109;-74
2022/01/05 11:53:17;;;;;;;191.60;137.05;;;;;;;;;;4996197;28;20030;-73
2022/01/05 11:55:58;;;;;;;204.90;135.93;;;;;;;;;;4996582;28;20164;-72
2022/01/05 11:58:26;;;;;;;235.70;173.70;;;410.20;2022.40;;;;;;4995744;28;20066;-72
2022/01/05 12:01:19;;;;;;;257.63;198.10;;;410.20;2022.40;;;;;;4995434;28;20027;-70
2022/01/05 12:03:57;;;;;;;254.93;196.98;;;410.20;2048.00;;;;;;4996379;28;20473;-73
2022/01/05 12:06:24;;;;;;;255.80;198.48;;;410.20;2073.60;;;;;;5014374;28;20480;-71
2022/01/05 12:08:55;;;;;;;265.33;192.27;;;410.20;2073.60;;;;;;5010771;28;20018;-74
2022/01/05 12:11:41;;;;;;;308.65;226.68;;;410.50;2073.60;;;;;;5015850;28;20054;-72
2022/01/05 12:14:19;;;;;;;249.32;183.55;;;410.50;2099.20;;;;;;5010666;28;20026;-72
2022/01/05 12:16:57;;;;;;;264.80;180.80;;;;;;;;;;4994060;28;20022;-74
2022/01/05 12:19:24;;;;;;;257.85;186.80;;;;;;;;;;4995236;28;20037;-74
2022/01/05 12:21:51;;;;;;;264.23;198.65;;;;;;;;;;4995945;28;20037;-75
2022/01/05 12:24:18;;;;;;;256.33;197.88;;;435.30;2048.00;;;;;;4994827;28;20488;-74
2022/01/05 12:26:44;;;;;;;281.85;207.48;;;435.30;2048.00;;;;;;4995157;28;20407;-71
2022/01/05 12:29:10;;;;;;;300.65;206.40;;;435.50;2355.20;;;;;;4994518;28;20038;-70
2022/01/05 12:31:58;;;;;;;263.13;198.23;;;435.40;2073.60;;;;;;4995472;28;20041;-73
2022/01/05 12:34:43;;;;;;;252.05;189.45;;;;;;;;;;4995586;28;20093;-72
2022/01/05 12:37:27;;;;;;;272.80;200.90;;;;;;;;;;4995396;28;20465;-75
2022/01/05 12:39:56;;;;;;;234.07;187.15;;;;;;;;;;5013210;28;20045;-72
2022/01/05 12:42:22;;;;;;;273.33;211.80;;;;;;;;;;5014623;28;20352;-72
2022/01/05 12:44:49;;;;;;;296.05;226.30;;;;;;;;;;4995149;28;20112;-71
2022/01/05 12:47:16;;;;;;;297.60;222.73;;;;;;;;;;4995469;28;20446;-72
2022/01/05 12:49:42;;;;;;;289.05;229.45;;;;;;;;;;4995607;28;20165;-74
2022/01/05 12:52:14;;;;;;;307.75;233.10;;;435.30;2073.60;;;;;;4995428;28;20033;-72
2022/01/05 12:54:47;;;;;;;314.92;243.20;;;435.20;2073.60;;;;;;4994793;28;20035;-74
2022/01/05 12:57:23;;;;;;;313.08;241.50;;;435.40;2252.80;;;;;;4994703;28;20074;-75
2022/01/05 12:59:51;;;;;;;337.10;276.15;;;;;;;;;;4994948;28;20038;-74
2022/01/05 13:02:23;;;;;;;322.10;249.95;;;;;;;;;;4994988;28;20026;-72
2022/01/05 13:04:50;;;;;;;353.52;248.20;;;;;;;;;;4994982;28;20373;-76
2022/01/05 13:07:17;;;;;;;344.73;249.35;;;;;;;;;;4994935;28;20030;-76
2022/01/05 13:09:46;;;;;;;337.95;249.27;;;;;;;;;;5010637;28;20022;-74
2022/01/05 13:12:19;;;;;;;352.50;265.70;;;;;;;;;;5014430;28;20026;-76
2022/01/05 13:14:46;;;;;;;389.52;314.27;;;;;;;;;;5014242;28;20053;-74
2022/01/05 13:17:17;;;;;;;374.20;296.48;;;;;;;;;;5014322;28;20030;-74
2022/01/05 13:19:48;;;;;;;357.27;281.30;;;;;;;;;;5013813;28;20426;-73
2022/01/05 13:22:17;;;;;;;371.37;281.80;;;;;;;;;;5014005;28;20480;-76
2022/01/05 13:24:43;;;;;;;378.52;286.83;;;;;;;;;;5014059;28;20037;-75
2022/01/05 13:27:09;;;;;;;374.13;285.13;;;;;;;;;;5001548;28;20049;-75
2022/01/05 13:29:35;;;;;;;369.40;284.75;;;;;;;;;;4994585;28;20034;-75
2022/01/05 13:32:06;;;;;;;374.05;289.73;;;;;;;;;;4994344;28;20019;-74
2022/01/05 13:34:36;;;;;;;381.15;287.10;;;;;;;;;;4994387;28;20433;-76
2022/01/05 13:37:06;;;;;;;406.70;300.38;;;;;;;;;;4977581;28;20042;-73
2022/01/05 13:39:43;;;;;;;401.48;308.65;;;;;;;;;;4989131;28;20054;-75
2022/01/05 13:42:14;;;;;;;417.00;323.15;;;;;;;;;;4994682;28;20035;-75
2022/01/05 13:44:43;;;;;;;434.38;350.85;;;;;;;;;;4994220;28;20022;-75